Time;durP1;ratioP1;P1;durP2;ratioP2;P2;SDS_P1;SDS_P2;PMS_P1;PMS_P2;Temp;Humidity;BMP_temperature;BMP_pressure;BME280_temperature;BME280_humidity;BME280_pressure;Samples;Min_cycle;Max_cycle;Signal;HPM_P1;HPM_P2
2021/05/11 00:00:15;;;;;;;;;;;15.50;99.40;;;14.49;69.68;94780.81;10327843;28;2057;-87
2021/05/11 00:05:17;;;;;;;;;;;15.50;99.90;;;14.47;69.55;94780.34;10356892;28;1965;-86
2021/05/11 00:10:19;;;;;;;;;;;15.40;99.90;;;14.42;69.77;94789.41;10366787;28;2018;-90
2021/05/11 00:15:21;;;;;;;;;;;15.40;99.90;;;14.38;69.77;94783.06;10374776;28;1891;-88
2021/05/11 00:20:23;;;;;;;;;;;15.30;99.90;;;14.29;70.02;94790.38;10367736;28;1648;-84
2021/05/11 00:25:25;;;;;;;;;;;15.30;99.90;;;14.24;70.36;94785.13;10328551;28;1979;-84
2021/05/11 00:30:27;;;;;;;;;;;15.20;99.90;;;14.10;70.26;94777.19;10338525;28;1611;-88
2021/05/11 00:35:29;;;;;;;;;;;15.10;99.90;;;13.96;71.13;94774.69;10335711;28;2034;-84
2021/05/11 00:40:31;;;;;;;;;;;15.00;99.90;;;13.99;70.81;94767.84;10357054;28;1930;-86
2021/05/11 00:45:33;;;;;;;;;;;14.90;99.90;;;13.90;71.18;94770.53;10364402;28;1930;-88
2021/05/11 00:50:35;;;;;;;;;;;14.90;99.90;;;13.89;71.43;94784.38;10343280;28;1515;-83
2021/05/11 00:55:37;;;;;;;;;;;14.90;99.90;;;13.86;71.11;94788.50;10329347;28;1700;-85
2021/05/11 01:00:40;;;;;;;;;;;14.80;99.90;;;13.86;71.45;94779.59;10333207;28;2046;-86
2021/05/11 01:05:42;;;;;;;;;;;14.80;99.90;;;13.84;70.98;94768.31;10341895;28;1998;-85
2021/05/11 01:10:44;;;;;;;;;;;14.80;99.90;;;13.73;70.91;94773.25;10347231;28;2022;-84
2021/05/11 01:15:49;;;;;;;;;;;14.70;99.90;;;13.71;71.35;94770.88;10356835;28;2103;-85
2021/05/11 01:20:52;;;;;;;;;;;14.70;99.90;;;13.63;71.62;94749.28;10335872;28;1743;-86
2021/05/11 01:26:00;;;;;;;;;;;14.60;99.90;;;13.57;71.51;94753.25;10337622;28;2073;-87
2021/05/11 01:52:45;;;;;;;;;;;14.10;99.90;;;12.96;74.72;94716.13;10354505;28;1976;-86
2021/05/11 02:24:33;;;;;;;;;;;13.60;99.90;;;12.48;77.05;94718.84;10382193;28;1810;-85
2021/05/11 02:29:35;;;;;;;;;;;13.50;99.90;;;12.46;77.13;94723.72;10372019;28;1974;-86
2021/05/11 02:34:37;;;;;;;;;;;13.40;99.90;;;12.31;76.72;94699.88;10377688;28;2077;-85
2021/05/11 02:39:40;;;;;;;;;;;13.40;99.90;;;12.28;77.42;94701.31;10340151;28;2195;-86
2021/05/11 02:44:44;;;;;;;;;;;13.30;99.90;;;12.23;77.64;94731.06;10347598;28;2172;-84
2021/05/11 02:49:48;;;;;;;;;;;13.30;99.90;;;12.22;77.69;94742.97;10337011;28;2187;-83
2021/05/11 02:54:50;;;;;;;;;;;13.20;99.90;;;12.16;77.80;94749.59;10344617;28;2262;-83
2021/05/11 02:59:52;;;;;;;;;;;13.20;99.90;;;12.15;78.33;94723.72;10350810;28;2282;-83
2021/05/11 03:04:56;;;;;;;;;;;13.20;99.90;;;12.09;78.29;94712.31;10326319;28;2039;-83
2021/05/11 03:09:58;;;;;;;;;;;13.10;99.90;;;12.05;78.99;94710.53;10341872;28;1914;-83
2021/05/11 03:15:00;;;;;;;;;;;13.10;99.90;;;12.03;78.88;94700.06;10348532;28;2037;-86
2021/05/11 03:20:02;;;;;;;;;;;13.00;99.90;;;12.01;79.00;94701.47;10360463;28;1825;-86
2021/05/11 03:25:04;;;;;;;;;;;13.00;99.90;;;11.97;78.75;94713.97;10350446;28;1452;-85
2021/05/11 03:30:06;;;;;;;;;;;13.00;99.90;;;11.97;79.15;94722.06;10338184;28;1939;-86
2021/05/11 03:35:09;;;;;;;;;;;12.90;99.90;;;12.02;79.08;94740.75;10340409;28;2001;-86
2021/05/11 03:40:10;;;;;;;;;;;13.00;99.90;;;12.05;78.85;94748.25;10342406;28;1988;-86
2021/05/11 03:45:13;;;;;;;;;;;13.00;99.90;;;12.07;78.70;94749.50;10340142;28;2164;-85
2021/05/11 03:50:16;;;;;;;;;;;13.00;99.90;;;12.07;78.48;94741.44;10325589;28;2272;-85
2021/05/11 03:55:18;;;;;;;;;;;13.10;99.90;;;12.11;78.37;94733.53;10330047;28;2372;-86
2021/05/11 04:00:21;;;;;;;;;;;13.00;99.90;;;12.12;78.08;94735.91;10326603;28;2314;-83
2021/05/11 04:05:23;;;;;;;;;;;13.10;99.90;;;12.13;77.60;94734.00;10324696;28;2246;-86
2021/05/11 04:10:32;;;;;;;;;;;13.10;99.90;;;12.07;78.13;94724.47;10342271;28;2300;-84
2021/05/11 04:20:55;;;;;;;;;;;13.10;99.90;;;12.07;77.80;94727.97;10338575;28;2166;-84
2021/05/11 04:25:59;;;;;;;;;;;13.00;99.90;;;12.11;78.01;94725.47;10328832;28;1902;-84
2021/05/11 04:31:02;;;;;;;;;;;13.00;99.90;;;12.01;78.27;94704.16;10331935;28;1631;-84
2021/05/11 04:36:04;;;;;;;;;;;13.00;99.90;;;11.89;79.00;94705.50;10335033;28;2177;-85
2021/05/11 04:41:07;;;;;;;;;;;12.90;99.90;;;11.75;79.07;94696.69;10319542;28;2202;-83
2021/05/11 04:46:15;;;;;;;;;;;12.80;99.90;;;11.76;79.39;94708.25;10338193;28;2162;-86
2021/05/11 04:51:18;;;;;;;;;;;12.70;99.90;;;11.80;79.31;94698.47;10346931;28;2127;-86
2021/05/11 04:56:21;;;;;;;;;;;12.70;99.90;;;11.90;79.21;94709.81;10341526;28;2158;-83
2021/05/11 05:01:23;;;;;;;;;;;12.80;99.90;;;12.31;78.16;94684.50;10325351;28;2244;-85
2021/05/11 05:06:26;;;;;;;;;;;13.00;99.90;;;13.16;73.42;94689.66;10337790;28;2177;-85
2021/05/11 05:11:29;;;;;;;;;;;13.70;99.90;;;13.79;71.49;94707.94;10331575;28;2059;-85
2021/05/11 05:16:32;;;;;;;;;;;14.30;99.90;;;14.32;68.93;94722.97;10333693;28;2075;-84
2021/05/11 05:21:35;;;;;;;;;;;14.90;99.90;;;14.80;66.96;94729.16;10333045;28;2133;-84
2021/05/11 05:26:38;;;;;;;;;;;15.50;99.90;;;15.11;65.41;94718.03;10331649;28;2100;-87
2021/05/11 05:31:41;;;;;;;;;;;15.80;99.90;;;15.14;64.72;94718.19;10338308;28;2202;-84
2021/05/11 05:36:43;;;;;;;;;;;16.00;99.90;;;15.58;63.29;94724.06;10340024;28;2111;-86
2021/05/11 05:41:46;;;;;;;;;;;16.20;99.90;;;15.84;62.21;94706.84;10339778;28;2203;-86
2021/05/11 05:46:49;;;;;;;;;;;16.50;99.90;;;16.16;61.42;94703.34;10337582;28;2247;-85
2021/05/11 05:51:59;;;;;;;;;;;16.80;99.90;;;16.03;61.58;94715.28;10335816;28;2194;-84
2021/05/11 05:57:02;;;;;;;;;;;16.80;99.90;;;15.86;62.25;94737.91;10335829;28;2099;-85
2021/05/11 06:02:04;;;;;;;;;;;16.60;99.90;;;15.61;63.30;94745.09;10343697;28;2198;-85
2021/05/11 06:07:07;;;;;;;;;;;16.50;99.90;;;15.66;63.16;94744.13;10336652;28;2201;-85
2021/05/11 06:12:15;;;;;;;;;;;16.40;99.90;;;15.74;62.74;94756.03;10331485;28;1783;-85
2021/05/11 06:17:17;;;;;;;;;;;16.50;99.90;;;15.75;63.14;94742.13;10346593;28;2045;-88
2021/05/11 06:22:20;;;;;;;;;;;16.60;99.90;;;16.16;61.52;94727.75;10352099;28;1280;-85
2021/05/11 06:27:23;;;;;;;;;;;16.70;99.90;;;15.95;61.79;94713.44;10336950;28;2198;-85
2021/05/11 06:32:25;;;;;;;;;;;16.70;99.90;;;15.63;63.13;94739.38;10350840;28;2062;-84
2021/05/11 06:37:29;;;;;;;;;;;16.40;99.90;;;15.21;64.73;94727.69;10351530;28;2075;-85
2021/05/11 06:42:32;;;;;;;;;;;16.30;99.90;;;15.09;65.47;94725.69;10352353;28;1798;-85
2021/05/11 06:47:57;;;;;;;;;;;15.90;99.90;;;15.19;65.17;94719.09;10349665;28;2106;-85
2021/05/11 06:53:13;;;;;;;;;;;16.00;99.90;;;15.51;64.11;94725.72;10376316;28;1970;-85
2021/05/11 06:58:15;;;;;;;;;;;16.10;99.90;;;15.12;65.03;94693.34;10348259;28;1664;-84
2021/05/11 07:03:18;;;;;;;;;;;16.10;99.90;;;15.30;64.22;94701.34;10347309;28;1953;-86
2021/05/11 07:08:32;;;;;;;;;;;16.00;99.90;;;15.31;63.95;94689.38;10340635;28;3012;-88
2021/05/11 07:13:42;;;;;;;;;;;16.10;99.90;;;15.40;64.30;94671.19;10351786;28;1648;-83
2021/05/11 07:18:46;;;;;;;;;;;16.20;99.90;;;15.29;64.54;94670.78;10349909;28;1906;-84
2021/05/11 07:23:49;;;;;;;;;;;16.20;99.90;;;15.23;64.77;94665.88;10348186;28;2174;-83
2021/05/11 07:29:04;;;;;;;;;;;16.10;99.90;;;15.25;64.99;94647.38;10352449;28;1895;-82
2021/05/11 07:34:09;;;;;;;;;;;16.10;99.90;;;15.82;62.88;94622.38;10342021;28;1854;-82
2021/05/11 07:39:11;;;;;;;;;;;16.30;99.90;;;15.49;63.89;94604.19;10334709;28;2014;-84
2021/05/11 07:44:15;;;;;;;;;;;16.50;99.90;;;15.22;64.87;94596.63;10351590;28;2011;-85
2021/05/11 08:05:24;;;;;;;;;;;16.30;99.90;;;14.89;66.60;94608.19;10373590;28;1628;-83
2021/05/11 08:15:51;;;;;;;;;;;15.90;99.90;;;15.30;65.67;94630.94;10319625;28;1369;-81
2021/05/11 08:31:40;;;;;;;;;;;16.30;99.90;;;15.04;67.11;94609.50;10337260;28;2951;-84
2021/05/11 08:36:43;;;;;;;;;;;15.90;99.90;;;14.91;67.79;94608.63;10356189;28;1864;-82
2021/05/11 08:41:46;;;;;;;;;;;15.90;99.90;;;14.69;69.34;94606.22;10356881;28;2169;-83
2021/05/11 08:52:16;;;;;;;;;;;15.60;99.90;;;14.64;69.12;94633.47;10348229;28;1614;-87
2021/05/11 09:08:12;;;;;;;;;;;15.60;99.90;;;15.39;66.77;94642.50;10333561;28;2025;-84
2021/05/11 09:24:01;;;;;;;;;;;16.30;99.90;;;15.85;65.29;94656.94;10347608;28;1529;-87
2021/05/11 09:29:11;;;;;;;;;;;16.40;99.90;;;15.59;66.05;94643.63;10344482;28;2195;-84
2021/05/11 09:34:22;;;;;;;;;;;16.50;99.90;;;15.99;64.11;94635.75;10346448;28;1865;-86
2021/05/11 09:45:15;;;;;;;;;;;17.00;99.90;;;16.58;62.38;94637.31;10326872;28;2017;-83
2021/05/11 09:56:03;;;;;;;;;;;17.00;99.90;;;17.01;60.82;94613.09;10351907;28;2026;-84
2021/05/11 10:10:21;;;;;;;;;;;17.40;99.90;;;18.11;57.30;94601.03;10344421;28;1726;-84
2021/05/11 10:49:40;;;;;;;;;;;18.20;99.90;;;17.51;58.20;94578.44;10368887;28;1926;-89
2021/05/11 10:55:05;;;;;;;;;;;18.30;99.90;;;17.88;57.30;94568.22;10358695;28;1827;-82
2021/05/11 11:00:15;;;;;;;;;;;18.40;99.90;;;18.00;57.04;94572.75;10350477;28;2069;-84
2021/05/11 11:05:18;;;;;;;;;;;18.60;99.90;;;18.02;56.80;94568.56;10344793;28;2124;-84
2021/05/11 11:10:21;;;;;;;;;;;18.90;99.90;;;18.63;55.08;94570.03;10351765;28;1922;-83
2021/05/11 11:15:23;;;;;;;;;;;19.00;99.90;;;18.39;55.26;94553.91;10363909;28;2221;-85
2021/05/11 11:20:26;;;;;;;;;;;19.10;99.90;;;18.55;54.86;94546.50;10352388;28;1985;-85
2021/05/11 11:25:29;;;;;;;;;;;19.20;99.90;;;19.11;53.33;94529.88;10361410;28;2093;-83
2021/05/11 11:30:31;;;;;;;;;;;19.50;99.90;;;19.11;53.43;94522.50;10361839;28;2025;-84
2021/05/11 11:35:34;;;;;;;;;;;19.70;99.90;;;19.54;52.47;94511.66;10364073;28;2089;-87
2021/05/11 11:40:36;;;;;;;;;;;19.90;99.90;;;19.75;50.94;94522.19;10361239;28;1858;-84
2021/05/11 11:45:39;;;;;;;;;;;20.20;98.30;;;19.69;50.63;94524.41;10354454;28;2104;-85
2021/05/11 11:50:41;;;;;;;;;;;20.30;97.30;;;19.50;51.84;94489.78;10354551;28;1891;-84
2021/05/11 11:56:11;;;;;;;;;;;20.30;97.10;;;19.41;52.32;94468.22;10348871;28;2090;-84
2021/05/11 12:01:17;;;;;;;;;;;20.20;97.50;;;19.24;53.23;94517.69;10345935;28;1908;-80
2021/05/11 12:06:30;;;;;;;;;;;20.10;98.30;;;19.37;53.51;94557.25;10355227;28;1813;-81
2021/05/11 12:12:01;;;;;;;;;;;20.00;98.60;;;19.57;53.73;94584.50;10344799;28;1915;-90
2021/05/11 12:17:25;;;;;;;;;;;20.20;99.50;;;19.87;52.78;94587.47;10365243;28;2082;-89
2021/05/11 12:22:28;;;;;;;;;;;20.40;98.80;;;20.62;51.01;94594.25;10359638;28;2070;-84
2021/05/11 12:27:33;;;;;;;;;;;20.80;98.20;;;21.13;49.33;94599.28;10362622;28;1958;-83
2021/05/11 12:32:36;;;;;;;;;;;21.40;96.70;;;21.01;49.50;94606.53;10360580;28;2143;-84
2021/05/11 12:37:39;;;;;;;;;;;21.70;94.50;;;21.10;49.49;94576.22;10346661;28;2100;-85
2021/05/11 12:42:42;;;;;;;;;;;21.70;94.60;;;20.55;51.13;94585.91;10345253;28;1920;-82
2021/05/11 12:47:46;;;;;;;;;;;21.40;95.30;;;20.93;50.27;94599.41;10340666;28;2116;-83
2021/05/11 12:52:50;;;;;;;;;;;21.40;95.50;;;20.96;50.65;94582.28;10346488;28;2125;-86
2021/05/11 12:57:57;;;;;;;;;;;21.60;94.90;;;21.10;49.92;94572.69;10353308;28;1985;-88
2021/05/11 13:03:15;;;;;;;;;;;21.60;94.40;;;20.95;50.31;94583.44;10358360;28;1750;-87
2021/05/11 13:14:09;;;;;;;;;;;21.50;94.70;;;21.08;50.36;94591.41;10341648;28;2276;-87
2021/05/11 13:25:12;;;;;;;;;;;21.90;93.90;;;20.18;51.55;94578.28;10348017;28;2039;-84
2021/05/11 13:30:26;;;;;;;;;;;21.20;93.80;;;20.39;51.38;94581.38;10366390;28;2092;-85
2021/05/11 13:35:29;;;;;;;;;;;21.00;94.80;;;19.97;52.26;94582.19;10345737;28;1413;-79
2021/05/11 13:40:32;;;;;;;;;;;20.90;94.60;;;20.06;53.00;94578.47;10338418;28;1708;-86
2021/05/11 13:45:35;;;;;;;;;;;20.80;96.10;;;20.07;53.93;94582.75;10342289;28;2069;-85
2021/05/11 13:50:55;;;;;;;;;;;20.90;97.20;;;20.14;54.03;94604.69;10342510;28;2011;-86
2021/05/11 14:02:00;;;;;;;;;;;20.70;97.60;;;19.48;55.50;94628.34;10196333;29;2110;-85
2021/05/11 14:07:04;;;;;;;;;;;20.40;98.60;;;19.29;56.33;94628.31;10334539;28;2231;-85
2021/05/11 14:12:07;;;;;;;;;;;20.20;98.90;;;18.99;56.63;94652.56;10331743;28;2112;-84
2021/05/11 14:17:11;;;;;;;;;;;20.00;99.20;;;18.62;58.44;94660.97;10335541;28;2203;-83
2021/05/11 14:22:14;;;;;;;;;;;19.70;99.90;;;18.55;58.90;94658.09;10340939;28;2127;-83
2021/05/11 14:27:16;;;;;;;;;;;19.40;99.90;;;18.81;57.16;94644.75;10340555;28;2112;-82
2021/05/11 14:32:18;;;;;;;;;;;19.40;99.90;;;19.63;54.98;94649.31;10346691;28;2160;-87
2021/05/11 14:37:21;;;;;;;;;;;19.90;99.90;;;19.69;54.96;94658.00;10345801;28;1982;-85
2021/05/11 14:42:24;;;;;;;;;;;20.30;99.40;;;19.83;54.63;94650.09;10348549;28;1858;-84
2021/05/11 14:47:51;;;;;;;;;;;20.60;98.90;;;19.19;56.88;94651.44;10584987;27;1927;-85
2021/05/11 14:52:57;;;;;;;;;;;20.20;99.80;;;19.60;56.07;94655.50;10524348;28;1987;-83
2021/05/11 14:58:00;;;;;;;;;;;20.30;99.90;;;19.40;56.50;94657.38;10489580;28;1667;-85
2021/05/11 15:03:10;;;;;;;;;;;20.40;99.80;;;18.83;57.23;94669.72;10500701;28;1950;-86
2021/05/11 15:08:14;;;;;;;;;;;19.90;99.90;;;18.63;58.88;94662.56;10494479;28;2123;-82
2021/05/11 15:13:20;;;;;;;;;;;19.50;99.90;;;18.46;59.87;94671.88;10497370;28;2168;-86
2021/05/11 15:18:25;;;;;;;;;;;19.40;99.90;;;18.55;59.45;94677.94;10487017;28;1817;-86
2021/05/11 15:23:29;;;;;;;;;;;19.40;99.90;;;18.09;60.51;94691.13;10498909;28;1922;-83
2021/05/11 15:28:32;;;;;;;;;;;19.10;99.90;;;17.89;60.97;94707.66;10496061;28;2043;-84
2021/05/11 15:33:34;;;;;;;;;;;18.90;99.90;;;17.60;62.02;94709.50;10489202;28;2648;-85
2021/05/11 15:38:37;;;;;;;;;;;18.60;99.90;;;17.88;61.01;94708.75;10499405;28;1983;-85
2021/05/11 15:43:39;;;;;;;;;;;18.60;99.90;;;17.61;61.08;94708.34;10499806;28;2166;-87
2021/05/11 15:48:42;;;;;;;;;;;18.50;99.90;;;17.73;60.24;94718.44;10528392;28;1862;-84
2021/05/11 15:53:44;;;;;;;;;;;18.50;99.90;;;17.85;59.92;94731.22;10521154;28;2030;-84
2021/05/11 15:58:47;;;;;;;;;;;18.60;99.90;;;17.31;61.88;94739.69;10501848;28;1826;-84
2021/05/11 16:03:50;;;;;;;;;;;18.40;99.90;;;16.97;63.10;94749.84;10483358;28;2020;-85
2021/05/11 16:08:52;;;;;;;;;;;18.10;99.90;;;16.91;64.25;94748.47;10498119;28;1692;-86
2021/05/11 16:13:55;;;;;;;;;;;17.90;99.90;;;16.58;66.39;94752.03;10503784;28;1862;-83
2021/05/11 16:18:58;;;;;;;;;;;17.60;99.90;;;16.68;66.44;94754.31;10488312;28;1599;-84
2021/05/11 16:24:01;;;;;;;;;;;17.50;99.90;;;16.72;66.01;94776.16;10493826;28;1906;-83
2021/05/11 16:29:04;;;;;;;;;;;17.60;99.90;;;16.78;64.75;94782.19;10493833;28;1684;-82
2021/05/11 16:34:08;;;;;;;;;;;17.60;99.90;;;16.56;65.82;94784.13;10492046;28;2030;-83
2021/05/11 16:39:14;;;;;;;;;;;17.50;99.90;;;16.29;66.59;94793.66;10522858;28;1876;-85
2021/05/11 16:44:21;;;;;;;;;;;17.30;99.90;;;16.17;66.68;94797.13;10525281;28;1950;-87
2021/05/11 16:49:24;;;;;;;;;;;17.20;99.90;;;16.16;67.40;94805.59;10526914;28;1598;-88
2021/05/11 16:54:27;;;;;;;;;;;17.00;99.90;;;15.88;68.76;94799.91;10537118;28;1936;-84
2021/05/11 16:59:29;;;;;;;;;;;16.90;99.90;;;16.00;68.90;94810.81;10513170;28;2075;-85
2021/05/11 17:04:32;;;;;;;;;;;16.90;99.90;;;16.08;68.66;94809.16;10492310;28;2077;-86
2021/05/11 17:09:34;;;;;;;;;;;17.00;99.90;;;16.20;68.46;94823.56;10498795;28;1949;-85
2021/05/11 17:14:38;;;;;;;;;;;17.00;99.90;;;16.07;69.17;94827.34;10489594;28;1979;-84
2021/05/11 17:19:40;;;;;;;;;;;17.00;99.90;;;15.90;70.13;94841.81;10497332;28;2168;-85
2021/05/11 17:24:43;;;;;;;;;;;16.90;99.90;;;15.79;70.58;94853.38;10508852;28;1894;-85
2021/05/11 17:29:45;;;;;;;;;;;16.70;99.90;;;15.57;72.42;94855.22;10500514;28;2021;-84
2021/05/11 17:34:48;;;;;;;;;;;16.60;99.90;;;15.56;72.89;94864.47;10486196;28;1968;-85
2021/05/11 17:39:53;;;;;;;;;;;16.50;99.90;;;15.19;74.57;94881.50;10512058;28;2028;-84
2021/05/11 17:44:56;;;;;;;;;;;16.20;99.90;;;15.19;74.52;94882.31;10493195;28;2067;-86
2021/05/11 17:49:58;;;;;;;;;;;16.20;99.90;;;15.20;74.47;94894.72;10495480;28;2040;-84
2021/05/11 17:55:00;;;;;;;;;;;16.20;99.90;;;15.12;74.95;94898.25;10509753;28;2126;-83
2021/05/11 18:00:04;;;;;;;;;;;16.10;99.90;;;15.01;75.61;94908.63;10487217;28;1785;-83
2021/05/11 18:05:06;;;;;;;;;;;16.10;99.90;;;14.96;75.53;94903.41;10486961;28;1992;-84
2021/05/11 18:10:08;;;;;;;;;;;16.00;99.90;;;14.83;75.91;94912.50;10508969;28;2009;-83
2021/05/11 18:15:11;;;;;;;;;;;15.80;99.90;;;14.64;76.75;94925.59;10504054;28;1584;-86
2021/05/11 18:20:13;;;;;;;;;;;15.70;99.90;;;14.37;77.38;94922.03;10513847;28;1930;-85
2021/05/11 18:25:16;;;;;;;;;;;15.50;99.90;;;14.14;75.83;94926.00;10515343;28;2019;-84
2021/05/11 18:30:18;;;;;;;;;;;15.20;99.90;;;13.99;75.17;94938.06;10508415;28;2026;-86
2021/05/11 18:35:24;;;;;;;;;;;15.00;99.90;;;13.81;74.57;94945.34;10515811;28;1963;-87
2021/05/11 18:40:26;;;;;;;;;;;14.90;99.90;;;13.78;74.26;94960.25;10509688;28;1922;-86
2021/05/11 18:45:29;;;;;;;;;;;14.80;99.90;;;13.64;73.93;94954.19;10513757;28;1965;-86
2021/05/11 18:50:32;;;;;;;;;;;14.70;99.90;;;13.42;72.46;94959.63;10508214;28;2009;-88
2021/05/11 18:55:34;;;;;;;;;;;14.50;99.90;;;13.49;72.56;94970.81;10530618;28;1886;-85
2021/05/11 19:00:36;;;;;;;;;;;14.40;99.90;;;13.22;72.61;94988.75;10516189;28;1946;-85
2021/05/11 19:05:39;;;;;;;;;;;14.30;99.90;;;12.97;72.66;94979.38;10534230;28;2049;-87
2021/05/11 19:10:42;;;;;;;;;;;14.10;99.90;;;12.85;73.10;94984.53;10515139;28;1886;-87
2021/05/11 19:15:45;;;;;;;;;;;13.90;99.90;;;12.82;72.37;94998.63;10525212;28;2038;-87
2021/05/11 19:20:47;;;;;;;;;;;13.80;99.90;;;12.69;72.94;95018.34;10522016;28;2036;-86
2021/05/11 19:25:49;;;;;;;;;;;13.80;99.90;;;12.52;73.41;95021.69;10504897;28;1895;-87
2021/05/11 19:30:52;;;;;;;;;;;13.60;99.90;;;12.48;73.43;95033.41;10508250;28;2220;-86
2021/05/11 19:35:55;;;;;;;;;;;13.50;99.90;;;12.38;74.28;95053.28;10512948;28;1746;-87
2021/05/11 19:40:57;;;;;;;;;;;13.40;99.90;;;12.42;73.70;95046.19;10487015;28;2087;-84
2021/05/11 19:46:00;;;;;;;;;;;13.40;99.90;;;12.37;74.69;95047.09;10497888;28;2484;-84
2021/05/11 19:51:03;;;;;;;;;;;13.40;99.90;;;12.24;75.16;95045.22;10522019;28;2402;-83
2021/05/11 19:56:07;;;;;;;;;;;13.30;99.90;;;12.20;75.06;95038.81;10503691;28;2112;-84
2021/05/11 20:01:15;;;;;;;;;;;13.20;99.90;;;12.02;75.86;95042.44;10499325;28;2116;-84
2021/05/11 20:06:18;;;;;;;;;;;13.00;99.90;;;11.99;76.33;95056.50;10488086;28;2117;-87
2021/05/11 20:11:21;;;;;;;;;;;13.00;99.90;;;11.98;76.56;95060.31;10498243;28;2094;-87
2021/05/11 20:16:24;;;;;;;;;;;12.90;99.90;;;11.95;75.89;95055.50;10507109;28;1957;-85
2021/05/11 20:21:27;;;;;;;;;;;12.90;99.90;;;11.75;76.62;95059.34;10497089;28;1931;-86
2021/05/11 20:26:32;;;;;;;;;;;12.80;99.90;;;11.82;77.02;95068.66;10509758;28;2095;-88
2021/05/11 20:31:34;;;;;;;;;;;12.70;99.90;;;11.85;76.43;95068.09;10510388;28;2003;-87
2021/05/11 20:36:38;;;;;;;;;;;12.90;99.90;;;11.86;75.90;95064.28;10511092;28;2048;-86
2021/05/11 20:41:41;;;;;;;;;;;12.90;99.90;;;11.71;77.69;95074.53;10515862;28;2121;-86
2021/05/11 20:46:45;;;;;;;;;;;12.70;99.90;;;11.69;77.76;95090.94;10501542;28;1911;-86
2021/05/11 20:51:48;;;;;;;;;;;12.70;99.90;;;11.22;80.72;95086.66;10507724;28;1936;-87
2021/05/11 20:56:51;;;;;;;;;;;12.50;99.90;;;11.02;85.29;95087.78;10499551;28;2106;-87
2021/05/11 21:01:54;;;;;;;;;;;12.20;99.90;;;10.69;87.18;95093.13;10493629;28;1675;-86
2021/05/11 21:07:00;;;;;;;;;;;11.90;99.90;;;10.71;88.88;95104.38;10524561;28;1918;-87
2021/05/11 21:12:03;;;;;;;;;;;11.80;99.90;;;10.68;91.20;95110.31;10507791;28;1894;-87
2021/05/11 21:17:06;;;;;;;;;;;11.70;99.90;;;10.54;92.24;95118.28;10496103;28;1732;-87
2021/05/11 21:22:09;;;;;;;;;;;11.60;99.90;;;10.44;92.58;95120.31;10520510;28;1663;-88
2021/05/11 21:27:12;;;;;;;;;;;11.50;99.90;;;10.35;93.30;95122.03;10510311;28;2226;-87
2021/05/11 21:32:15;;;;;;;;;;;11.40;99.90;;;10.38;94.75;95137.59;10515081;28;1976;-88
2021/05/11 21:37:17;;;;;;;;;;;11.40;99.90;;;10.31;94.99;95140.63;10506092;28;1831;-89
2021/05/11 21:42:20;;;;;;;;;;;11.30;99.90;;;10.38;95.66;95137.59;10524056;28;2084;-87
2021/05/11 21:47:25;;;;;;;;;;;11.40;99.90;;;10.32;95.93;95133.38;10515987;28;1958;-88
2021/05/11 21:52:28;;;;;;;;;;;11.40;99.90;;;10.34;95.92;95147.31;10523205;28;1736;-86
2021/05/11 21:57:30;;;;;;;;;;;11.30;99.90;;;10.34;96.62;95147.31;10518272;28;2134;-87
2021/05/11 22:02:38;;;;;;;;;;;11.30;99.90;;;10.17;95.63;95143.16;10513824;28;2017;-89
2021/05/11 22:07:41;;;;;;;;;;;11.20;99.90;;;10.12;96.04;95139.75;10537821;28;1963;-87
2021/05/11 22:12:44;;;;;;;;;;;11.10;99.90;;;10.05;95.91;95141.94;10508033;28;2128;-88
2021/05/11 22:17:48;;;;;;;;;;;11.10;99.90;;;10.00;96.17;95132.09;10499075;28;2069;-87
2021/05/11 22:22:50;;;;;;;;;;;11.00;99.90;;;10.01;96.54;95136.38;10515718;28;2163;-88
2021/05/11 22:27:53;;;;;;;;;;;11.00;99.90;;;10.01;96.18;95122.94;10505809;28;2022;-85
2021/05/11 22:32:55;;;;;;;;;;;11.00;99.90;;;9.85;96.08;95133.03;10501541;28;1988;-89
2021/05/11 22:37:58;;;;;;;;;;;10.90;99.90;;;9.83;97.03;95137.09;10510346;28;1931;-86
2021/05/11 22:43:00;;;;;;;;;;;10.80;99.90;;;9.81;96.29;95123.16;10517961;28;2181;-87
2021/05/11 22:48:03;;;;;;;;;;;10.80;99.90;;;9.74;97.49;95124.31;10515206;28;1926;-87
2021/05/11 22:53:06;;;;;;;;;;;10.70;99.90;;;9.67;97.41;95123.00;10499032;28;2036;-86
2021/05/11 22:58:08;;;;;;;;;;;10.70;99.90;;;9.63;97.67;95127.38;10490956;28;1777;-85
2021/05/11 23:03:11;;;;;;;;;;;10.60;99.90;;;9.60;98.39;95133.28;10491463;28;2066;-86
2021/05/11 23:08:13;;;;;;;;;;;10.60;99.90;;;9.60;98.66;95141.31;10488935;28;2065;-86
2021/05/11 23:13:16;;;;;;;;;;;10.60;99.90;;;9.63;99.21;95155.00;10490654;28;2188;-86
2021/05/11 23:18:21;;;;;;;;;;;10.60;99.90;;;9.61;98.42;95162.53;10506077;28;2063;-87
2021/05/11 23:23:24;;;;;;;;;;;10.60;99.90;;;9.60;98.93;95152.84;10496210;28;1862;-88
2021/05/11 23:28:26;;;;;;;;;;;10.60;99.90;;;9.54;98.86;95155.88;10497032;28;1963;-87
2021/05/11 23:33:28;;;;;;;;;;;10.50;99.90;;;9.56;99.74;95154.53;10502016;28;1612;-87
2021/05/11 23:38:31;;;;;;;;;;;10.50;99.90;;;9.52;99.70;95150.00;10492690;28;1600;-86
2021/05/11 23:43:34;;;;;;;;;;;10.50;99.90;;;9.49;99.75;95151.38;10524485;28;1893;-85
2021/05/11 23:48:37;;;;;;;;;;;10.50;99.90;;;9.45;99.87;95158.38;10510675;28;1899;-86
2021/05/11 23:53:39;;;;;;;;;;;10.40;99.90;;;9.42;99.47;95148.22;10508217;28;1746;-86
2021/05/11 23:58:42;;;;;;;;;;;10.40;99.90;;;9.43;99.60;95144.44;10517421;28;1656;-84
